This is the latest recevied weather packets stored in our database for station/object W4WYD-2. If no packets are shown the sender has not sent any weather packets the latest 10 day(s).
| Time | Temp. | Humidity | Pressure | Rain* | Wind** | Luminosity | Snow |
|---|---|---|---|---|---|---|---|
| 1787692366 | 31.67° C | 47% | 1017.1 hPa | 0 mm | - | 477 W/m² | - |
| 1787692060 | 31.11° C | 51% | 1016.9 hPa | 0 mm | - | 491 W/m² | - |
| 1787691759 | 31.67° C | 46% | 1017.3 hPa | 0 mm | - | 510 W/m² | - |
| 1787691458 | 31.67° C | 46% | 1017.4 hPa | 0 mm | - | 529 W/m² | - |
| 1787691151 | 31.67° C | 48% | 1017.2 hPa | 0 mm | - | 545 W/m² | - |
| 1787690847 | 30.56° C | 53% | 1017.4 hPa | 0 mm | - | 566 W/m² | - |
| 1787690541 | 30.56° C | 50% | 1017.4 hPa | 0 mm | - | 584 W/m² | - |
| 1787690236 | 31.11° C | 49% | 1017.5 hPa | 0 mm | - | 626 W/m² | - |
| 1787689934 | 31.11° C | 50% | 1017.6 hPa | 0 mm | - | 666 W/m² | - |
| 1787689628 | 30.56° C | 52% | 1017.8 hPa | 0 mm | - | 665 W/m² | - |
| 1787689324 | 30.56° C | 51% | 1017.6 hPa | 0 mm | - | 698 W/m² | - |
| 1787689024 | 31.11° C | 50% | 1017.7 hPa | 0 mm | - | 660 W/m² | - |
| 1787688719 | 31.67° C | 47% | 1017.6 hPa | 0 mm | - | 666 W/m² | - |
| 1787688414 | 31.11° C | 50% | 1017.7 hPa | 0 mm | - | 705 W/m² | - |
| 1787688109 | 31.11° C | 50% | 1017.9 hPa | 0 mm | - | 699 W/m² | - |
| 1787687805 | 31.11° C | 50% | 1017.8 hPa | 0 mm | - | 595 W/m² | - |
| 1787687499 | 31.67° C | 48% | 1017.8 hPa | 0 mm | - | 781 W/m² | - |
| 1787687196 | 31.67° C | 53% | 1017.8 hPa | 0 mm | - | 743 W/m² | - |
| 1787686891 | 31.11° C | 51% | 1018.1 hPa | 0 mm | - | 437 W/m² | - |
| 1787686587 | 31.11° C | 48% | 1018.1 hPa | 0 mm | - | 856 W/m² | - |
| 1787686282 | 31.11° C | 50% | 1018.1 hPa | 0 mm | - | 901 W/m² | - |
| 1787685978 | 31.11° C | 52% | 1018.1 hPa | 0 mm | - | 470 W/m² | - |
| 1787685673 | 31.11° C | 46% | 1018.2 hPa | 0 mm | - | 537 W/m² | - |
| 1787685372 | 31.11° C | 46% | 1018.4 hPa | 0 mm | - | 825 W/m² | - |
| 1787685068 | 31.11° C | 52% | 1018.3 hPa | 0 mm | - | 710 W/m² | - |
* Rain latest hour (hover to see other rain measurements)
** Current wind speed in m/s (hover to see current wind gust speed)